sensor_id;sensor_type;location;lat;lon;timestamp;P1;durP1;ratioP1;P2;durP2;ratioP2
85342;SDS011;75760;31.390;34.904;2024-03-17T00:00:22;5.70;;;1.20;;
85342;SDS011;75760;31.390;34.904;2024-03-17T00:02:48;3.47;;;0.90;;
85342;SDS011;75760;31.390;34.904;2024-03-17T00:05:14;5.28;;;1.50;;
85342;SDS011;75760;31.390;34.904;2024-03-17T00:07:40;4.07;;;1.30;;
85342;SDS011;75760;31.390;34.904;2024-03-17T00:10:06;4.67;;;1.40;;
85342;SDS011;75760;31.390;34.904;2024-03-17T00:12:32;4.50;;;1.77;;
85342;SDS011;75760;31.390;34.904;2024-03-17T00:14:59;4.20;;;1.42;;
85342;SDS011;75760;31.390;34.904;2024-03-17T00:17:24;5.40;;;1.70;;
85342;SDS011;75760;31.390;34.904;2024-03-17T00:19:50;5.45;;;1.85;;
85342;SDS011;75760;31.390;34.904;2024-03-17T00:22:16;4.80;;;1.80;;
85342;SDS011;75760;31.390;34.904;2024-03-17T00:24:42;6.65;;;1.90;;
85342;SDS011;75760;31.390;34.904;2024-03-17T00:27:08;5.22;;;1.92;;
85342;SDS011;75760;31.390;34.904;2024-03-17T00:29:34;7.67;;;1.80;;
85342;SDS011;75760;31.390;34.904;2024-03-17T00:32:00;5.10;;;2.00;;
85342;SDS011;75760;31.390;34.904;2024-03-17T00:34:25;6.70;;;2.00;;
85342;SDS011;75760;31.390;34.904;2024-03-17T00:36:51;5.72;;;1.83;;
85342;SDS011;75760;31.390;34.904;2024-03-17T00:39:17;6.07;;;2.00;;
85342;SDS011;75760;31.390;34.904;2024-03-17T00:41:45;7.07;;;1.95;;
85342;SDS011;75760;31.390;34.904;2024-03-17T00:44:11;6.30;;;2.90;;
85342;SDS011;75760;31.390;34.904;2024-03-17T00:46:36;7.47;;;2.37;;
85342;SDS011;75760;31.390;34.904;2024-03-17T00:49:02;5.07;;;2.13;;
85342;SDS011;75760;31.390;34.904;2024-03-17T00:51:28;7.20;;;3.27;;
85342;SDS011;75760;31.390;34.904;2024-03-17T00:53:53;6.13;;;2.60;;
85342;SDS011;75760;31.390;34.904;2024-03-17T00:56:21;6.43;;;1.70;;
85342;SDS011;75760;31.390;34.904;2024-03-17T00:58:47;6.22;;;1.20;;
85342;SDS011;75760;31.390;34.904;2024-03-17T01:01:13;5.30;;;1.57;;
85342;SDS011;75760;31.390;34.904;2024-03-17T01:03:38;3.95;;;1.38;;
85342;SDS011;75760;31.390;34.904;2024-03-17T01:06:04;3.83;;;1.20;;
85342;SDS011;75760;31.390;34.904;2024-03-17T01:08:30;3.38;;;1.38;;
85342;SDS011;75760;31.390;34.904;2024-03-17T01:10:56;5.15;;;1.38;;
85342;SDS011;75760;31.390;34.904;2024-03-17T01:13:23;3.70;;;1.65;;
85342;SDS011;75760;31.390;34.904;2024-03-17T01:15:51;4.70;;;1.40;;
85342;SDS011;75760;31.390;34.904;2024-03-17T01:18:17;3.60;;;1.30;;
85342;SDS011;75760;31.390;34.904;2024-03-17T01:20:43;6.03;;;2.08;;
85342;SDS011;75760;31.390;34.904;2024-03-17T01:23:09;6.68;;;2.13;;
85342;SDS011;75760;31.390;34.904;2024-03-17T01:25:35;4.87;;;1.80;;
85342;SDS011;75760;31.390;34.904;2024-03-17T01:28:02;3.95;;;1.50;;
85342;SDS011;75760;31.390;34.904;2024-03-17T01:30:29;5.38;;;1.80;;
85342;SDS011;75760;31.390;34.904;2024-03-17T01:32:55;4.50;;;1.90;;
85342;SDS011;75760;31.390;34.904;2024-03-17T01:35:21;5.50;;;1.70;;
85342;SDS011;75760;31.390;34.904;2024-03-17T01:37:48;6.80;;;1.92;;
85342;SDS011;75760;31.390;34.904;2024-03-17T01:40:14;7.43;;;2.03;;
85342;SDS011;75760;31.390;34.904;2024-03-17T01:42:40;7.53;;;1.77;;
85342;SDS011;75760;31.390;34.904;2024-03-17T01:47:44;12.43;;;2.30;;
85342;SDS011;75760;31.390;34.904;2024-03-17T01:50:10;6.03;;;1.95;;
85342;SDS011;75760;31.390;34.904;2024-03-17T01:52:38;3.50;;;1.45;;
85342;SDS011;75760;31.390;34.904;2024-03-17T01:55:04;5.23;;;1.57;;
85342;SDS011;75760;31.390;34.904;2024-03-17T01:57:31;5.78;;;1.92;;
85342;SDS011;75760;31.390;34.904;2024-03-17T01:59:57;5.53;;;1.67;;
85342;SDS011;75760;31.390;34.904;2024-03-17T02:02:23;5.75;;;1.90;;
85342;SDS011;75760;31.390;34.904;2024-03-17T02:04:49;5.07;;;1.70;;
85342;SDS011;75760;31.390;34.904;2024-03-17T02:07:15;3.97;;;1.20;;
85342;SDS011;75760;31.390;34.904;2024-03-17T02:09:41;6.05;;;1.80;;
85342;SDS011;75760;31.390;34.904;2024-03-17T02:12:09;7.50;;;1.40;;
85342;SDS011;75760;31.390;34.904;2024-03-17T02:14:37;5.18;;;1.40;;
85342;SDS011;75760;31.390;34.904;2024-03-17T02:17:03;3.55;;;1.20;;
85342;SDS011;75760;31.390;34.904;2024-03-17T02:19:29;5.22;;;1.42;;
85342;SDS011;75760;31.390;34.904;2024-03-17T02:21:55;5.40;;;1.60;;
85342;SDS011;75760;31.390;34.904;2024-03-17T02:24:20;5.60;;;1.33;;
85342;SDS011;75760;31.390;34.904;2024-03-17T02:26:46;4.23;;;1.10;;
85342;SDS011;75760;31.390;34.904;2024-03-17T02:29:11;7.57;;;1.58;;
85342;SDS011;75760;31.390;34.904;2024-03-17T02:31:37;4.93;;;1.30;;
85342;SDS011;75760;31.390;34.904;2024-03-17T02:34:03;4.20;;;1.30;;
85342;SDS011;75760;31.390;34.904;2024-03-17T02:36:28;5.78;;;1.48;;
85342;SDS011;75760;31.390;34.904;2024-03-17T02:38:54;3.70;;;1.17;;
85342;SDS011;75760;31.390;34.904;2024-03-17T02:41:41;4.93;;;1.33;;
85342;SDS011;75760;31.390;34.904;2024-03-17T02:44:07;2.90;;;1.20;;
85342;SDS011;75760;31.390;34.904;2024-03-17T02:46:33;4.63;;;1.17;;
85342;SDS011;75760;31.390;34.904;2024-03-17T02:48:59;4.95;;;1.33;;
85342;SDS011;75760;31.390;34.904;2024-03-17T02:51:25;4.82;;;1.50;;
85342;SDS011;75760;31.390;34.904;2024-03-17T02:53:51;3.47;;;1.20;;
85342;SDS011;75760;31.390;34.904;2024-03-17T02:56:17;3.88;;;1.38;;
85342;SDS011;75760;31.390;34.904;2024-03-17T02:58:44;4.80;;;1.58;;
85342;SDS011;75760;31.390;34.904;2024-03-17T03:01:11;8.10;;;1.60;;
85342;SDS011;75760;31.390;34.904;2024-03-17T03:03:37;7.22;;;1.70;;
85342;SDS011;75760;31.390;34.904;2024-03-17T03:06:03;5.57;;;1.90;;
85342;SDS011;75760;31.390;34.904;2024-03-17T03:08:34;5.22;;;2.00;;
85342;SDS011;75760;31.390;34.904;2024-03-17T03:11:09;4.90;;;1.40;;
85342;SDS011;75760;31.390;34.904;2024-03-17T03:13:40;6.35;;;1.80;;
85342;SDS011;75760;31.390;34.904;2024-03-17T03:16:07;4.47;;;1.50;;
85342;SDS011;75760;31.390;34.904;2024-03-17T03:18:37;3.55;;;1.30;;
85342;SDS011;75760;31.390;34.904;2024-03-17T03:21:07;5.00;;;1.23;;
85342;SDS011;75760;31.390;34.904;2024-03-17T03:23:32;7.40;;;1.40;;
85342;SDS011;75760;31.390;34.904;2024-03-17T03:25:59;5.00;;;1.52;;
85342;SDS011;75760;31.390;34.904;2024-03-17T03:28:27;5.28;;;1.40;;
85342;SDS011;75760;31.390;34.904;2024-03-17T03:30:55;5.60;;;1.48;;
85342;SDS011;75760;31.390;34.904;2024-03-17T03:33:20;5.90;;;1.33;;
85342;SDS011;75760;31.390;34.904;2024-03-17T03:35:47;5.18;;;1.40;;
85342;SDS011;75760;31.390;34.904;2024-03-17T03:38:13;5.53;;;1.50;;
85342;SDS011;75760;31.390;34.904;2024-03-17T03:40:42;4.07;;;1.13;;
85342;SDS011;75760;31.390;34.904;2024-03-17T03:43:08;5.40;;;1.50;;
85342;SDS011;75760;31.390;34.904;2024-03-17T03:45:35;4.38;;;1.30;;
85342;SDS011;75760;31.390;34.904;2024-03-17T03:48:01;5.88;;;1.52;;
85342;SDS011;75760;31.390;34.904;2024-03-17T03:50:28;6.57;;;1.67;;
85342;SDS011;75760;31.390;34.904;2024-03-17T03:52:54;5.18;;;1.40;;
85342;SDS011;75760;31.390;34.904;2024-03-17T03:55:20;4.60;;;1.70;;
85342;SDS011;75760;31.390;34.904;2024-03-17T03:57:46;6.90;;;1.30;;
85342;SDS011;75760;31.390;34.904;2024-03-17T04:00:17;4.15;;;1.80;;
85342;SDS011;75760;31.390;34.904;2024-03-17T04:02:50;8.85;;;1.60;;
85342;SDS011;75760;31.390;34.904;2024-03-17T04:05:17;4.73;;;1.20;;
85342;SDS011;75760;31.390;34.904;2024-03-17T04:07:45;6.78;;;1.70;;
85342;SDS011;75760;31.390;34.904;2024-03-17T04:10:12;9.38;;;2.00;;
85342;SDS011;75760;31.390;34.904;2024-03-17T04:12:38;5.78;;;1.55;;
85342;SDS011;75760;31.390;34.904;2024-03-17T04:15:04;5.03;;;1.55;;
85342;SDS011;75760;31.390;34.904;2024-03-17T04:17:31;2.70;;;1.00;;
85342;SDS011;75760;31.390;34.904;2024-03-17T04:19:57;7.10;;;1.45;;
85342;SDS011;75760;31.390;34.904;2024-03-17T04:22:23;8.05;;;1.52;;
85342;SDS011;75760;31.390;34.904;2024-03-17T04:24:50;5.50;;;1.20;;
85342;SDS011;75760;31.390;34.904;2024-03-17T04:27:22;5.93;;;1.30;;
85342;SDS011;75760;31.390;34.904;2024-03-17T04:29:55;6.75;;;1.48;;
85342;SDS011;75760;31.390;34.904;2024-03-17T04:32:22;7.70;;;1.83;;
85342;SDS011;75760;31.390;34.904;2024-03-17T04:34:48;6.78;;;1.75;;
85342;SDS011;75760;31.390;34.904;2024-03-17T04:37:14;6.20;;;1.42;;
85342;SDS011;75760;31.390;34.904;2024-03-17T04:39:41;7.17;;;1.77;;
85342;SDS011;75760;31.390;34.904;2024-03-17T04:42:08;6.93;;;1.50;;
85342;SDS011;75760;31.390;34.904;2024-03-17T04:44:34;7.63;;;1.70;;
85342;SDS011;75760;31.390;34.904;2024-03-17T04:47:00;7.65;;;1.65;;
85342;SDS011;75760;31.390;34.904;2024-03-17T04:49:31;4.13;;;1.60;;
85342;SDS011;75760;31.390;34.904;2024-03-17T04:52:03;4.97;;;1.60;;
85342;SDS011;75760;31.390;34.904;2024-03-17T04:54:33;4.93;;;1.35;;
85342;SDS011;75760;31.390;34.904;2024-03-17T04:56:59;4.45;;;1.50;;
85342;SDS011;75760;31.390;34.904;2024-03-17T04:59:25;7.33;;;1.80;;
85342;SDS011;75760;31.390;34.904;2024-03-17T05:01:51;3.08;;;1.20;;
85342;SDS011;75760;31.390;34.904;2024-03-17T05:04:17;4.60;;;1.52;;
85342;SDS011;75760;31.390;34.904;2024-03-17T05:06:43;5.00;;;1.85;;
85342;SDS011;75760;31.390;34.904;2024-03-17T05:09:12;5.97;;;1.17;;
85342;SDS011;75760;31.390;34.904;2024-03-17T05:11:38;5.35;;;1.20;;
85342;SDS011;75760;31.390;34.904;2024-03-17T05:14:04;3.20;;;1.13;;
85342;SDS011;75760;31.390;34.904;2024-03-17T05:16:30;6.43;;;1.85;;
85342;SDS011;75760;31.390;34.904;2024-03-17T05:18:56;5.47;;;1.30;;
85342;SDS011;75760;31.390;34.904;2024-03-17T05:21:22;5.75;;;1.20;;
85342;SDS011;75760;31.390;34.904;2024-03-17T05:23:49;3.33;;;0.90;;
85342;SDS011;75760;31.390;34.904;2024-03-17T05:26:15;5.57;;;1.35;;
85342;SDS011;75760;31.390;34.904;2024-03-17T05:28:41;7.28;;;1.25;;
85342;SDS011;75760;31.390;34.904;2024-03-17T05:31:06;6.13;;;1.30;;
85342;SDS011;75760;31.390;34.904;2024-03-17T05:33:32;4.73;;;1.03;;
85342;SDS011;75760;31.390;34.904;2024-03-17T05:35:58;10.40;;;1.70;;
85342;SDS011;75760;31.390;34.904;2024-03-17T05:38:27;5.82;;;1.42;;
85342;SDS011;75760;31.390;34.904;2024-03-17T05:40:55;5.53;;;1.73;;
85342;SDS011;75760;31.390;34.904;2024-03-17T05:43:25;4.85;;;1.50;;
85342;SDS011;75760;31.390;34.904;2024-03-17T05:45:52;4.45;;;1.55;;
85342;SDS011;75760;31.390;34.904;2024-03-17T05:48:19;4.50;;;1.27;;
85342;SDS011;75760;31.390;34.904;2024-03-17T05:50:45;5.13;;;1.75;;
85342;SDS011;75760;31.390;34.904;2024-03-17T05:53:11;4.50;;;1.13;;
85342;SDS011;75760;31.390;34.904;2024-03-17T05:55:37;6.17;;;1.40;;
85342;SDS011;75760;31.390;34.904;2024-03-17T05:58:03;5.37;;;1.30;;
85342;SDS011;75760;31.390;34.904;2024-03-17T06:00:29;3.45;;;1.10;;
85342;SDS011;75760;31.390;34.904;2024-03-17T06:02:56;8.38;;;1.00;;
85342;SDS011;75760;31.390;34.904;2024-03-17T06:05:22;3.67;;;1.33;;
85342;SDS011;75760;31.390;34.904;2024-03-17T06:07:48;5.00;;;1.20;;
85342;SDS011;75760;31.390;34.904;2024-03-17T06:10:13;5.47;;;1.27;;
85342;SDS011;75760;31.390;34.904;2024-03-17T06:12:39;7.33;;;1.20;;
85342;SDS011;75760;31.390;34.904;2024-03-17T06:15:05;7.97;;;1.38;;
85342;SDS011;75760;31.390;34.904;2024-03-17T06:17:31;6.50;;;1.50;;
85342;SDS011;75760;31.390;34.904;2024-03-17T06:19:57;10.20;;;1.50;;
85342;SDS011;75760;31.390;34.904;2024-03-17T06:22:23;10.85;;;1.58;;
85342;SDS011;75760;31.390;34.904;2024-03-17T06:24:49;6.40;;;1.27;;
85342;SDS011;75760;31.390;34.904;2024-03-17T06:27:15;7.13;;;1.20;;
85342;SDS011;75760;31.390;34.904;2024-03-17T06:29:41;6.53;;;1.17;;
85342;SDS011;75760;31.390;34.904;2024-03-17T06:32:08;5.22;;;0.85;;
85342;SDS011;75760;31.390;34.904;2024-03-17T06:34:34;4.50;;;0.88;;
85342;SDS011;75760;31.390;34.904;2024-03-17T06:36:59;7.00;;;1.07;;
85342;SDS011;75760;31.390;34.904;2024-03-17T06:39:25;6.10;;;1.50;;
85342;SDS011;75760;31.390;34.904;2024-03-17T06:41:51;5.43;;;1.20;;
85342;SDS011;75760;31.390;34.904;2024-03-17T06:44:17;2.80;;;0.93;;
85342;SDS011;75760;31.390;34.904;2024-03-17T06:46:44;4.63;;;1.50;;
85342;SDS011;75760;31.390;34.904;2024-03-17T06:49:12;7.97;;;1.73;;
85342;SDS011;75760;31.390;34.904;2024-03-17T06:51:38;5.72;;;1.40;;
85342;SDS011;75760;31.390;34.904;2024-03-17T06:54:03;9.00;;;1.53;;
85342;SDS011;75760;31.390;34.904;2024-03-17T06:56:29;5.82;;;1.10;;
85342;SDS011;75760;31.390;34.904;2024-03-17T06:58:55;8.70;;;1.73;;
85342;SDS011;75760;31.390;34.904;2024-03-17T07:01:20;5.40;;;1.13;;
85342;SDS011;75760;31.390;34.904;2024-03-17T07:03:46;7.73;;;1.87;;
85342;SDS011;75760;31.390;34.904;2024-03-17T07:06:11;10.95;;;1.60;;
85342;SDS011;75760;31.390;34.904;2024-03-17T07:08:37;13.70;;;1.80;;
85342;SDS011;75760;31.390;34.904;2024-03-17T07:11:03;6.40;;;1.38;;
85342;SDS011;75760;31.390;34.904;2024-03-17T07:13:31;5.63;;;1.47;;
85342;SDS011;75760;31.390;34.904;2024-03-17T07:16:01;11.48;;;1.55;;
85342;SDS011;75760;31.390;34.904;2024-03-17T07:18:28;7.10;;;1.98;;
85342;SDS011;75760;31.390;34.904;2024-03-17T07:20:58;10.57;;;2.17;;
85342;SDS011;75760;31.390;34.904;2024-03-17T07:23:30;8.25;;;2.13;;
85342;SDS011;75760;31.390;34.904;2024-03-17T07:25:58;9.03;;;1.83;;
85342;SDS011;75760;31.390;34.904;2024-03-17T07:28:24;8.57;;;1.77;;
85342;SDS011;75760;31.390;34.904;2024-03-17T07:30:51;10.27;;;1.77;;
85342;SDS011;75760;31.390;34.904;2024-03-17T07:33:18;5.80;;;1.50;;
85342;SDS011;75760;31.390;34.904;2024-03-17T07:35:51;9.75;;;2.25;;
85342;SDS011;75760;31.390;34.904;2024-03-17T07:38:19;7.50;;;1.57;;
85342;SDS011;75760;31.390;34.904;2024-03-17T07:40:45;5.22;;;1.30;;
85342;SDS011;75760;31.390;34.904;2024-03-17T07:43:22;10.98;;;1.40;;
85342;SDS011;75760;31.390;34.904;2024-03-17T07:45:56;15.30;;;1.60;;
85342;SDS011;75760;31.390;34.904;2024-03-17T07:48:22;15.57;;;2.00;;
85342;SDS011;75760;31.390;34.904;2024-03-17T07:50:58;8.27;;;1.55;;
85342;SDS011;75760;31.390;34.904;2024-03-17T07:53:26;18.40;;;2.13;;
85342;SDS011;75760;31.390;34.904;2024-03-17T07:56:02;13.30;;;1.70;;
85342;SDS011;75760;31.390;34.904;2024-03-17T07:58:29;10.93;;;1.83;;
85342;SDS011;75760;31.390;34.904;2024-03-17T08:01:01;11.50;;;1.63;;
85342;SDS011;75760;31.390;34.904;2024-03-17T08:03:31;9.50;;;1.83;;
85342;SDS011;75760;31.390;34.904;2024-03-17T08:06:01;8.77;;;1.83;;
85342;SDS011;75760;31.390;34.904;2024-03-17T08:08:29;8.73;;;1.57;;
85342;SDS011;75760;31.390;34.904;2024-03-17T08:10:56;4.80;;;1.40;;
85342;SDS011;75760;31.390;34.904;2024-03-17T08:13:22;8.25;;;1.48;;
85342;SDS011;75760;31.390;34.904;2024-03-17T08:15:56;8.80;;;1.65;;
85342;SDS011;75760;31.390;34.904;2024-03-17T08:18:26;6.68;;;1.40;;
85342;SDS011;75760;31.390;34.904;2024-03-17T08:20:54;8.57;;;2.07;;
85342;SDS011;75760;31.390;34.904;2024-03-17T08:23:21;8.80;;;1.55;;
85342;SDS011;75760;31.390;34.904;2024-03-17T08:25:56;5.63;;;1.65;;
85342;SDS011;75760;31.390;34.904;2024-03-17T08:28:24;7.32;;;1.60;;
85342;SDS011;75760;31.390;34.904;2024-03-17T08:30:54;8.15;;;1.65;;
85342;SDS011;75760;31.390;34.904;2024-03-17T08:33:21;6.93;;;1.50;;
85342;SDS011;75760;31.390;34.904;2024-03-17T08:36:01;5.88;;;1.58;;
85342;SDS011;75760;31.390;34.904;2024-03-17T08:38:28;5.93;;;1.90;;
85342;SDS011;75760;31.390;34.904;2024-03-17T08:40:56;5.57;;;1.40;;
85342;SDS011;75760;31.390;34.904;2024-03-17T08:43:23;7.72;;;1.67;;
85342;SDS011;75760;31.390;34.904;2024-03-17T08:48:26;8.38;;;1.95;;
85342;SDS011;75760;31.390;34.904;2024-03-17T08:50:54;8.77;;;1.63;;
85342;SDS011;75760;31.390;34.904;2024-03-17T08:53:20;8.52;;;1.75;;
85342;SDS011;75760;31.390;34.904;2024-03-17T08:55:46;5.35;;;1.42;;
85342;SDS011;75760;31.390;34.904;2024-03-17T08:58:13;5.00;;;1.33;;
85342;SDS011;75760;31.390;34.904;2024-03-17T09:00:38;6.55;;;1.40;;
85342;SDS011;75760;31.390;34.904;2024-03-17T09:03:06;9.40;;;1.42;;
85342;SDS011;75760;31.390;34.904;2024-03-17T09:05:35;7.63;;;1.40;;
85342;SDS011;75760;31.390;34.904;2024-03-17T09:08:01;5.57;;;1.70;;
85342;SDS011;75760;31.390;34.904;2024-03-17T09:10:27;8.13;;;1.50;;
85342;SDS011;75760;31.390;34.904;2024-03-17T09:12:52;12.70;;;1.50;;
85342;SDS011;75760;31.390;34.904;2024-03-17T09:15:18;6.77;;;1.50;;
85342;SDS011;75760;31.390;34.904;2024-03-17T14:22:04;9.23;;;3.15;;
85342;SDS011;75760;31.390;34.904;2024-03-17T14:24:30;11.60;;;3.08;;
85342;SDS011;75760;31.390;34.904;2024-03-17T14:26:56;13.93;;;2.40;;
85342;SDS011;75760;31.390;34.904;2024-03-17T14:29:21;11.17;;;2.93;;
85342;SDS011;75760;31.390;34.904;2024-03-17T14:31:47;8.67;;;2.90;;
85342;SDS011;75760;31.390;34.904;2024-03-17T14:34:13;11.57;;;3.72;;
85342;SDS011;75760;31.390;34.904;2024-03-17T14:36:38;10.20;;;2.90;;
85342;SDS011;75760;31.390;34.904;2024-03-17T14:39:04;12.05;;;2.65;;
85342;SDS011;75760;31.390;34.904;2024-03-17T14:41:30;14.37;;;3.87;;
85342;SDS011;75760;31.390;34.904;2024-03-17T14:43:56;11.95;;;3.30;;
85342;SDS011;75760;31.390;34.904;2024-03-17T14:46:22;14.75;;;3.53;;
85342;SDS011;75760;31.390;34.904;2024-03-17T14:48:49;18.17;;;3.28;;
85342;SDS011;75760;31.390;34.904;2024-03-17T14:51:16;13.13;;;3.35;;
85342;SDS011;75760;31.390;34.904;2024-03-17T14:53:43;14.93;;;3.60;;
85342;SDS011;75760;31.390;34.904;2024-03-17T14:56:16;13.70;;;3.28;;
85342;SDS011;75760;31.390;34.904;2024-03-17T14:58:45;10.63;;;3.40;;
85342;SDS011;75760;31.390;34.904;2024-03-17T15:01:12;14.55;;;2.83;;
85342;SDS011;75760;31.390;34.904;2024-03-17T15:03:38;7.18;;;2.50;;
85342;SDS011;75760;31.390;34.904;2024-03-17T15:06:11;10.97;;;2.70;;
85342;SDS011;75760;31.390;34.904;2024-03-17T15:08:39;10.55;;;2.60;;
85342;SDS011;75760;31.390;34.904;2024-03-17T15:11:05;11.05;;;2.67;;
85342;SDS011;75760;31.390;34.904;2024-03-17T15:13:33;10.00;;;2.75;;
85342;SDS011;75760;31.390;34.904;2024-03-17T15:16:00;11.40;;;2.90;;
85342;SDS011;75760;31.390;34.904;2024-03-17T15:18:28;11.02;;;3.25;;
85342;SDS011;75760;31.390;34.904;2024-03-17T15:20:54;6.63;;;2.35;;
85342;SDS011;75760;31.390;34.904;2024-03-17T15:23:23;11.53;;;2.63;;
85342;SDS011;75760;31.390;34.904;2024-03-17T15:26:03;15.73;;;3.33;;
85342;SDS011;75760;31.390;34.904;2024-03-17T15:28:38;8.82;;;2.70;;
85342;SDS011;75760;31.390;34.904;2024-03-17T15:31:05;11.43;;;2.40;;
85342;SDS011;75760;31.390;34.904;2024-03-17T15:33:35;9.75;;;2.55;;
85342;SDS011;75760;31.390;34.904;2024-03-17T15:36:05;10.53;;;2.90;;
85342;SDS011;75760;31.390;34.904;2024-03-17T15:38:35;10.82;;;4.15;;
85342;SDS011;75760;31.390;34.904;2024-03-17T15:41:07;11.05;;;4.90;;
85342;SDS011;75760;31.390;34.904;2024-03-17T15:43:36;12.93;;;4.32;;
85342;SDS011;75760;31.390;34.904;2024-03-17T15:48:40;13.07;;;3.90;;
85342;SDS011;75760;31.390;34.904;2024-03-17T15:51:06;11.98;;;4.75;;
85342;SDS011;75760;31.390;34.904;2024-03-17T15:53:32;12.85;;;3.53;;
85342;SDS011;75760;31.390;34.904;2024-03-17T15:55:58;8.90;;;3.60;;
85342;SDS011;75760;31.390;34.904;2024-03-17T15:58:26;9.55;;;3.10;;
85342;SDS011;75760;31.390;34.904;2024-03-17T16:00:55;10.52;;;3.25;;
85342;SDS011;75760;31.390;34.904;2024-03-17T16:03:31;17.47;;;3.37;;
85342;SDS011;75760;31.390;34.904;2024-03-17T16:06:02;9.65;;;2.65;;
85342;SDS011;75760;31.390;34.904;2024-03-17T16:08:33;10.88;;;3.63;;
85342;SDS011;75760;31.390;34.904;2024-03-17T16:11:07;9.35;;;2.92;;
85342;SDS011;75760;31.390;34.904;2024-03-17T16:13:38;14.45;;;2.40;;
85342;SDS011;75760;31.390;34.904;2024-03-17T16:16:06;7.20;;;2.47;;
85342;SDS011;75760;31.390;34.904;2024-03-17T16:18:34;7.78;;;2.35;;
85342;SDS011;75760;31.390;34.904;2024-03-17T16:23:40;14.18;;;3.28;;
85342;SDS011;75760;31.390;34.904;2024-03-17T16:26:11;12.25;;;3.60;;
85342;SDS011;75760;31.390;34.904;2024-03-17T16:28:37;17.40;;;3.53;;
85342;SDS011;75760;31.390;34.904;2024-03-17T16:31:04;15.10;;;3.13;;
85342;SDS011;75760;31.390;34.904;2024-03-17T16:33:33;12.50;;;2.70;;
85342;SDS011;75760;31.390;34.904;2024-03-17T16:36:00;8.98;;;3.10;;
85342;SDS011;75760;31.390;34.904;2024-03-17T16:38:26;10.07;;;2.45;;
85342;SDS011;75760;31.390;34.904;2024-03-17T16:40:56;14.93;;;2.60;;
85342;SDS011;75760;31.390;34.904;2024-03-17T16:43:49;14.82;;;3.15;;
85342;SDS011;75760;31.390;34.904;2024-03-17T16:49:06;10.23;;;3.45;;
85342;SDS011;75760;31.390;34.904;2024-03-17T16:51:38;13.30;;;2.90;;
85342;SDS011;75760;31.390;34.904;2024-03-17T16:54:04;13.70;;;3.47;;
85342;SDS011;75760;31.390;34.904;2024-03-17T16:56:30;10.70;;;3.55;;
85342;SDS011;75760;31.390;34.904;2024-03-17T16:58:57;10.95;;;3.40;;
85342;SDS011;75760;31.390;34.904;2024-03-17T17:01:23;13.43;;;2.90;;
85342;SDS011;75760;31.390;34.904;2024-03-17T17:03:50;9.60;;;3.10;;
85342;SDS011;75760;31.390;34.904;2024-03-17T17:06:16;13.23;;;3.03;;
85342;SDS011;75760;31.390;34.904;2024-03-17T17:08:42;16.33;;;3.20;;
85342;SDS011;75760;31.390;34.904;2024-03-17T17:11:13;16.53;;;3.33;;
85342;SDS011;75760;31.390;34.904;2024-03-17T17:13:40;11.57;;;3.30;;
85342;SDS011;75760;31.390;34.904;2024-03-17T17:16:06;18.43;;;3.73;;
85342;SDS011;75760;31.390;34.904;2024-03-17T17:18:48;12.57;;;3.15;;
85342;SDS011;75760;31.390;34.904;2024-03-17T17:21:15;15.85;;;3.92;;
85342;SDS011;75760;31.390;34.904;2024-03-17T17:23:45;15.70;;;3.75;;
85342;SDS011;75760;31.390;34.904;2024-03-17T17:26:15;14.50;;;3.63;;
85342;SDS011;75760;31.390;34.904;2024-03-17T17:28:57;13.02;;;4.10;;
85342;SDS011;75760;31.390;34.904;2024-03-17T17:31:24;15.45;;;3.60;;
85342;SDS011;75760;31.390;34.904;2024-03-17T17:33:55;14.93;;;3.20;;
85342;SDS011;75760;31.390;34.904;2024-03-17T17:36:22;11.57;;;3.25;;
85342;SDS011;75760;31.390;34.904;2024-03-17T17:38:48;14.60;;;3.40;;
85342;SDS011;75760;31.390;34.904;2024-03-17T17:41:14;14.25;;;3.13;;
85342;SDS011;75760;31.390;34.904;2024-03-17T17:43:43;18.75;;;3.22;;
85342;SDS011;75760;31.390;34.904;2024-03-17T17:46:10;16.17;;;2.85;;
85342;SDS011;75760;31.390;34.904;2024-03-17T17:48:37;15.07;;;2.40;;
85342;SDS011;75760;31.390;34.904;2024-03-17T17:51:08;18.40;;;3.70;;
85342;SDS011;75760;31.390;34.904;2024-03-17T17:53:37;22.23;;;3.22;;
85342;SDS011;75760;31.390;34.904;2024-03-17T17:56:06;21.67;;;3.03;;
85342;SDS011;75760;31.390;34.904;2024-03-17T17:58:34;12.57;;;2.70;;
85342;SDS011;75760;31.390;34.904;2024-03-17T18:01:01;16.27;;;2.80;;
85342;SDS011;75760;31.390;34.904;2024-03-17T18:03:27;18.73;;;3.03;;
85342;SDS011;75760;31.390;34.904;2024-03-17T18:05:54;18.35;;;3.03;;
85342;SDS011;75760;31.390;34.904;2024-03-17T18:08:24;12.05;;;3.47;;
85342;SDS011;75760;31.390;34.904;2024-03-17T18:10:50;16.58;;;3.22;;
85342;SDS011;75760;31.390;34.904;2024-03-17T18:13:16;13.17;;;2.87;;
85342;SDS011;75760;31.390;34.904;2024-03-17T18:15:43;12.35;;;3.25;;
85342;SDS011;75760;31.390;34.904;2024-03-17T18:18:10;11.55;;;2.63;;
85342;SDS011;75760;31.390;34.904;2024-03-17T18:20:36;12.85;;;2.78;;
85342;SDS011;75760;31.390;34.904;2024-03-17T18:23:02;12.23;;;3.27;;
85342;SDS011;75760;31.390;34.904;2024-03-17T18:25:32;12.77;;;2.38;;
85342;SDS011;75760;31.390;34.904;2024-03-17T18:27:59;11.77;;;2.67;;
85342;SDS011;75760;31.390;34.904;2024-03-17T18:30:26;14.52;;;2.92;;
85342;SDS011;75760;31.390;34.904;2024-03-17T18:32:54;12.67;;;2.57;;
85342;SDS011;75760;31.390;34.904;2024-03-17T18:35:23;19.80;;;3.42;;
85342;SDS011;75760;31.390;34.904;2024-03-17T18:37:49;13.00;;;2.60;;
85342;SDS011;75760;31.390;34.904;2024-03-17T18:40:15;14.27;;;2.80;;
85342;SDS011;75760;31.390;34.904;2024-03-17T18:42:46;10.77;;;2.60;;
85342;SDS011;75760;31.390;34.904;2024-03-17T18:45:21;9.93;;;2.73;;
85342;SDS011;75760;31.390;34.904;2024-03-17T18:47:48;13.38;;;3.05;;
85342;SDS011;75760;31.390;34.904;2024-03-17T18:50:16;10.65;;;2.72;;
85342;SDS011;75760;31.390;34.904;2024-03-17T18:52:43;10.77;;;2.92;;
85342;SDS011;75760;31.390;34.904;2024-03-17T18:55:13;21.42;;;5.22;;
85342;SDS011;75760;31.390;34.904;2024-03-17T18:57:40;14.20;;;3.47;;
85342;SDS011;75760;31.390;34.904;2024-03-17T19:00:08;13.73;;;3.70;;
85342;SDS011;75760;31.390;34.904;2024-03-17T19:02:42;19.40;;;3.60;;
85342;SDS011;75760;31.390;34.904;2024-03-17T19:05:11;15.43;;;5.10;;
85342;SDS011;75760;31.390;34.904;2024-03-17T19:07:37;19.80;;;5.80;;
85342;SDS011;75760;31.390;34.904;2024-03-17T19:10:03;16.85;;;3.97;;
85342;SDS011;75760;31.390;34.904;2024-03-17T19:12:30;12.35;;;3.20;;
85342;SDS011;75760;31.390;34.904;2024-03-17T19:15:03;12.07;;;2.83;;
85342;SDS011;75760;31.390;34.904;2024-03-17T19:17:32;9.77;;;3.13;;
85342;SDS011;75760;31.390;34.904;2024-03-17T19:20:07;10.57;;;2.77;;
85342;SDS011;75760;31.390;34.904;2024-03-17T19:22:37;11.85;;;2.72;;
85342;SDS011;75760;31.390;34.904;2024-03-17T19:25:06;18.13;;;3.47;;
85342;SDS011;75760;31.390;34.904;2024-03-17T19:27:34;13.05;;;3.00;;
85342;SDS011;75760;31.390;34.904;2024-03-17T19:30:04;17.23;;;3.38;;
85342;SDS011;75760;31.390;34.904;2024-03-17T19:32:33;17.40;;;3.13;;
85342;SDS011;75760;31.390;34.904;2024-03-17T19:35:00;13.55;;;3.38;;
85342;SDS011;75760;31.390;34.904;2024-03-17T19:37:26;10.32;;;2.97;;
85342;SDS011;75760;31.390;34.904;2024-03-17T19:39:51;13.87;;;2.80;;
85342;SDS011;75760;31.390;34.904;2024-03-17T19:42:19;10.90;;;3.10;;
85342;SDS011;75760;31.390;34.904;2024-03-17T19:44:46;15.00;;;3.35;;
85342;SDS011;75760;31.390;34.904;2024-03-17T19:47:13;9.43;;;2.97;;
85342;SDS011;75760;31.390;34.904;2024-03-17T19:49:46;17.17;;;3.10;;